Terminal Aerodrome Forecast
Issued by NWS

Home | Current Version | Previous Version | Text Only | Print | Product List | Glossary On
Versions: 1 2 3 4 5 6 7 8 9 10 11 12 13 14 15 16 17 18 19 20
000
FTUS42 KKEY 242342
TAFMTH
TAF
KMTH 242342Z 2500/2524 10008KT P6SM VCSH SCT025
     FM251400 07012KT P6SM FEW025
     FM251800 07014G20KT P6SM SCT030=

USA.gov is the U.S. government's official web portal to all federal, state and local government web resources and services.